Maldives Meteorological Service

SYNOP

Station Code SYNOP
43555
AAXX 08184 43555 12475 23205 10297 20249 30131 40133 60001 82200 333 58004 82819=
43533
AAXX 08184 43533 12465 40203 10282 20255 30131 40133 60001 82202 333 58007 82818 83077=
43577
AAXX 08184 43577 12468 22703 10291 20250 30136 40138 60001 82202 333 58006 82818=
43588
AAXX 08184 43588 12470 69902 10278 20262 30134 40135 60001 82202 333 58005 82818 85077=
43599
AAXX 08184 43599 12465 43205 10280 20250 30135 40137 60001 82201 333 58006 82818 84076 =
Last Updated : 2020-04-08 22:59:38